Time,TemperatureF,DewpointF,PressureIn,WindDirection,WindDirectionDegrees,WindSpeedMPH,WindSpeedGustMPH,Humidity,HourlyPrecipIn,Conditions,Clouds,dailyrainin,SoftwareType,DateUTC
2013-04-25 00:01:00,34.0,21.0,-100.00,SE,130,4.0,5.0,59,0.00,,,-99.99,,2013-04-25 06:01:00,
2013-04-25 00:11:00,33.0,21.0,-100.00,South,189,4.0,5.0,62,0.00,,,-99.99,,2013-04-25 06:11:00,
2013-04-25 00:22:00,33.0,21.0,-100.00,South,186,3.0,4.0,61,0.00,,,-99.99,,2013-04-25 06:22:00,
2013-04-25 00:31:00,33.0,21.0,-100.00,South,186,3.0,4.0,61,0.00,,,-99.99,,2013-04-25 06:31:00,
2013-04-25 00:41:00,33.0,21.0,-100.00,SSW,203,4.0,4.0,61,0.00,,,-99.99,,2013-04-25 06:41:00,
2013-04-25 00:52:00,33.0,21.0,-100.00,SSW,212,5.0,6.0,59,0.00,,,-99.99,,2013-04-25 06:52:00,
2013-04-25 01:01:00,33.0,21.0,-100.00,SSW,212,5.0,6.0,59,0.00,,,-99.99,,2013-04-25 07:01:00,
2013-04-25 01:11:00,31.0,20.0,-100.00,SE,137,2.0,3.0,64,0.00,,,-99.99,,2013-04-25 07:11:00,
2013-04-25 01:21:00,31.0,20.0,-100.00,SE,137,2.0,3.0,64,0.00,,,-99.99,,2013-04-25 07:21:00,
2013-04-25 01:52:00,31.0,22.0,-100.00,NNW,342,3.0,4.0,67,0.00,,,-99.99,,2013-04-25 07:52:00,
2013-04-25 02:01:00,31.0,22.0,-100.00,NNW,342,3.0,4.0,67,0.00,,,-99.99,,2013-04-25 08:01:00,
2013-04-25 02:11:00,30.0,21.0,-100.00,WNW,291,2.0,3.0,70,0.00,,,-99.99,,2013-04-25 08:11:00,
2013-04-25 02:21:00,30.0,21.0,-100.00,WNW,291,2.0,3.0,70,0.00,,,-99.99,,2013-04-25 08:21:00,
2013-04-25 02:41:00,29.0,21.0,-100.00,West,271,0.0,1.0,73,0.00,,,-99.99,,2013-04-25 08:41:00,
2013-04-25 02:52:00,27.0,20.0,-100.00,NNE,17,1.0,1.0,73,0.00,,,-99.99,,2013-04-25 08:52:00,
2013-04-25 03:01:00,27.0,20.0,-100.00,NNE,17,1.0,1.0,73,0.00,,,-99.99,,2013-04-25 09:01:00,
2013-04-25 03:11:00,27.0,20.0,-100.00,NW,319,1.0,1.0,75,0.00,,,-99.99,,2013-04-25 09:11:00,
2013-04-25 03:21:00,28.0,21.0,-100.00,North,10,2.0,3.0,74,0.00,,,-99.99,,2013-04-25 09:21:00,
2013-04-25 03:32:00,28.0,21.0,-100.00,North,10,2.0,3.0,74,0.00,,,-99.99,,2013-04-25 09:32:00,
2013-04-25 03:42:00,26.0,19.0,-100.00,NNE,20,0.0,0.0,73,0.00,,,-99.99,,2013-04-25 09:42:00,
2013-04-25 03:52:00,26.0,19.0,-100.00,NE,45,0.0,0.0,76,0.00,,,-99.99,,2013-04-25 09:52:00,
2013-04-25 04:02:00,26.0,19.0,-100.00,NE,45,0.0,0.0,76,0.00,,,-99.99,,2013-04-25 10:02:00,
2013-04-25 04:12:00,26.0,20.0,-100.00,SW,222,0.0,0.0,77,0.00,,,-99.99,,2013-04-25 10:12:00,
2013-04-25 04:22:00,25.0,17.0,-100.00,South,176,3.0,3.0,74,0.00,,,-99.99,,2013-04-25 10:22:00,
2013-04-25 04:32:00,25.0,17.0,-100.00,South,176,3.0,3.0,74,0.00,,,-99.99,,2013-04-25 10:32:00,
2013-04-25 04:42:00,25.0,17.0,-100.00,South,176,3.0,3.0,74,0.00,,,-99.99,,2013-04-25 10:42:00,
2013-04-25 04:53:00,25.0,20.0,-100.00,SSW,196,3.0,4.0,81,0.00,,,-99.99,,2013-04-25 10:53:00,
2013-04-25 05:02:00,25.0,20.0,-100.00,SSW,196,3.0,4.0,81,0.00,,,-99.99,,2013-04-25 11:02:00,
2013-04-25 05:12:00,25.0,19.0,-100.00,WNW,302,0.0,1.0,78,0.00,,,-99.99,,2013-04-25 11:12:00,
2013-04-25 05:22:00,25.0,19.0,-100.00,SSE,151,1.0,2.0,78,0.00,,,-99.99,,2013-04-25 11:22:00,
2013-04-25 05:32:00,25.0,19.0,-100.00,SSE,151,1.0,2.0,78,0.00,,,-99.99,,2013-04-25 11:32:00,
2013-04-25 05:42:00,25.0,19.0,-100.00,SSE,151,1.0,2.0,78,0.00,,,-99.99,,2013-04-25 11:42:00,
2013-04-25 05:52:00,23.0,18.0,-100.00,SSE,157,0.0,1.0,81,0.00,,,-99.99,,2013-04-25 11:52:00,
2013-04-25 06:01:00,23.0,18.0,-100.00,SSE,157,0.0,1.0,81,0.00,,,-99.99,,2013-04-25 12:01:00,
2013-04-25 06:12:00,23.0,18.0,-100.00,SW,217,2.0,3.0,81,0.00,,,-99.99,,2013-04-25 12:12:00,
2013-04-25 06:21:00,23.0,18.0,-100.00,SSE,161,0.0,1.0,82,0.00,,,-99.99,,2013-04-25 12:21:00,
2013-04-25 06:31:00,23.0,18.0,-100.00,SSE,161,0.0,1.0,82,0.00,,,-99.99,,2013-04-25 12:31:00,
2013-04-25 06:41:00,23.0,18.0,-100.00,South,169,2.0,3.0,79,0.00,,,-99.99,,2013-04-25 12:41:00,
2013-04-25 06:52:00,23.0,18.0,-100.00,South,169,2.0,3.0,79,0.00,,,-99.99,,2013-04-25 12:52:00,
2013-04-25 07:11:00,23.0,18.0,-100.00,NNW,329,0.0,0.0,78,0.00,,,-99.99,,2013-04-25 13:11:00,
2013-04-25 07:21:00,22.0,19.0,-100.00,NNW,330,1.0,2.0,85,0.00,,,-99.99,,2013-04-25 13:21:00,
2013-04-25 07:31:00,22.0,19.0,-100.00,NNW,330,1.0,2.0,85,0.00,,,-99.99,,2013-04-25 13:31:00,
2013-04-25 07:42:00,23.0,18.0,-100.00,SE,126,1.0,2.0,80,0.00,,,-99.99,,2013-04-25 13:42:00,
2013-04-25 07:52:00,25.0,20.0,-100.00,SE,141,4.0,4.0,80,0.00,,,-99.99,,2013-04-25 13:52:00,
2013-04-25 08:01:00,25.0,20.0,-100.00,SE,141,4.0,4.0,80,0.00,,,-99.99,,2013-04-25 14:01:00,
2013-04-25 08:11:00,25.0,20.0,-100.00,SE,141,4.0,4.0,80,0.00,,,-99.99,,2013-04-25 14:11:00,
2013-04-25 08:21:00,28.0,21.0,-100.00,WNW,292,2.0,3.0,75,0.00,,,-99.99,,2013-04-25 14:21:00,
2013-04-25 08:32:00,28.0,21.0,-100.00,WNW,292,2.0,3.0,75,0.00,,,-99.99,,2013-04-25 14:32:00,
2013-04-25 08:42:00,30.0,22.0,-100.00,NNW,330,1.0,2.0,71,0.00,,,-99.99,,2013-04-25 14:42:00,
2013-04-25 08:52:00,33.0,22.0,-100.00,SE,145,2.0,3.0,62,0.00,,,-99.99,,2013-04-25 14:52:00,
2013-04-25 09:01:00,33.0,22.0,-100.00,SE,145,2.0,3.0,62,0.00,,,-99.99,,2013-04-25 15:01:00,
2013-04-25 09:11:00,35.0,23.0,-100.00,SE,145,3.0,4.0,61,0.00,,,-99.99,,2013-04-25 15:11:00,
2013-04-25 09:21:00,37.0,24.0,-100.00,SSE,152,3.0,5.0,58,0.00,,,-99.99,,2013-04-25 15:21:00,
2013-04-25 09:33:00,37.0,24.0,-100.00,SSE,152,3.0,5.0,58,0.00,,,-99.99,,2013-04-25 15:33:00,
2013-04-25 09:42:00,38.0,25.0,-100.00,South,174,2.0,3.0,59,0.00,,,-99.99,,2013-04-25 15:42:00,
2013-04-25 09:53:00,40.0,23.0,-100.00,SSE,148,5.0,8.0,50,0.00,,,-99.99,,2013-04-25 15:53:00,
2013-04-25 10:02:00,40.0,23.0,-100.00,SSE,148,5.0,8.0,50,0.00,,,-99.99,,2013-04-25 16:02:00,
2013-04-25 10:13:00,42.0,22.0,-100.00,SE,140,2.0,4.0,44,0.00,,,-99.99,,2013-04-25 16:13:00,
2013-04-25 10:24:00,43.0,22.0,-100.00,ESE,121,2.0,3.0,42,0.00,,,-99.99,,2013-04-25 16:24:00,
2013-04-25 10:32:00,43.0,22.0,-100.00,ESE,121,2.0,3.0,42,0.00,,,-99.99,,2013-04-25 16:32:00,
2013-04-25 10:42:00,44.0,23.0,-100.00,SW,232,2.0,4.0,43,0.00,,,-99.99,,2013-04-25 16:42:00,
2013-04-25 10:52:00,45.0,20.0,-100.00,SW,219,4.0,6.0,36,0.00,,,-99.99,,2013-04-25 16:52:00,
2013-04-25 11:02:00,45.0,20.0,-100.00,SW,219,4.0,6.0,36,0.00,,,-99.99,,2013-04-25 17:02:00,
2013-04-25 11:11:00,45.0,20.0,-100.00,SW,219,4.0,6.0,36,0.00,,,-99.99,,2013-04-25 17:11:00,
2013-04-25 11:22:00,48.0,23.0,-100.00,NE,37,1.0,2.0,37,0.00,,,-99.99,,2013-04-25 17:22:00,
2013-04-25 11:31:00,48.0,23.0,-100.00,NE,37,1.0,2.0,37,0.00,,,-99.99,,2013-04-25 17:31:00,
2013-04-25 11:42:00,49.0,21.0,-100.00,WSW,256,2.0,4.0,33,0.00,,,-99.99,,2013-04-25 17:42:00,
2013-04-25 11:53:00,50.0,21.0,-100.00,WNW,287,2.0,4.0,31,0.00,,,-99.99,,2013-04-25 17:53:00,
2013-04-25 12:01:00,50.0,21.0,-100.00,WNW,287,2.0,4.0,31,0.00,,,-99.99,,2013-04-25 18:01:00,
2013-04-25 12:11:00,51.0,22.0,-100.00,SE,137,4.0,5.0,31,0.00,,,-99.99,,2013-04-25 18:11:00,
2013-04-25 12:21:00,51.0,22.0,-100.00,SE,137,4.0,5.0,31,0.00,,,-99.99,,2013-04-25 18:21:00,
2013-04-25 12:31:00,51.0,22.0,-100.00,SE,137,4.0,5.0,31,0.00,,,-99.99,,2013-04-25 18:31:00,
2013-04-25 12:42:00,54.0,20.0,-100.00,SSE,158,5.0,7.0,27,0.00,,,-99.99,,2013-04-25 18:42:00,
2013-04-25 12:53:00,54.0,20.0,-100.00,SSE,158,5.0,7.0,27,0.00,,,-99.99,,2013-04-25 18:53:00,
2013-04-25 13:01:00,54.0,20.0,-100.00,SSE,158,5.0,7.0,27,0.00,,,-99.99,,2013-04-25 19:01:00,
2013-04-25 13:12:00,55.0,18.0,-100.00,South,189,3.0,5.0,24,0.00,,,-99.99,,2013-04-25 19:12:00,
2013-04-25 13:21:00,57.0,18.0,-100.00,South,174,4.0,7.0,22,0.00,,,-99.99,,2013-04-25 19:21:00,
2013-04-25 13:31:00,57.0,18.0,-100.00,South,174,4.0,7.0,22,0.00,,,-99.99,,2013-04-25 19:31:00,
2013-04-25 13:41:00,58.0,19.0,-100.00,ESE,116,5.0,8.0,21,0.00,,,-99.99,,2013-04-25 19:41:00,
2013-04-25 13:52:00,59.0,19.0,-100.00,South,184,6.0,11.0,21,0.00,,,-99.99,,2013-04-25 19:52:00,
2013-04-25 14:01:00,59.0,19.0,-100.00,South,184,6.0,11.0,21,0.00,,,-99.99,,2013-04-25 20:01:00,
2013-04-25 14:11:00,59.0,19.0,-100.00,South,186,8.0,11.0,20,0.00,,,-99.99,,2013-04-25 20:11:00,
2013-04-25 14:22:00,60.0,18.0,-100.00,SSE,158,7.0,10.0,20,0.00,,,-99.99,,2013-04-25 20:22:00,
2013-04-25 14:32:00,60.0,18.0,-100.00,SSE,158,7.0,10.0,20,0.00,,,-99.99,,2013-04-25 20:32:00,
2013-04-25 14:42:00,61.0,18.0,-100.00,South,176,9.0,16.0,18,0.00,,,-99.99,,2013-04-25 20:42:00,
2013-04-25 14:52:00,61.0,18.0,-100.00,South,176,9.0,16.0,18,0.00,,,-99.99,,2013-04-25 20:52:00,
2013-04-25 15:01:00,61.0,18.0,-100.00,South,176,9.0,16.0,18,0.00,,,-99.99,,2013-04-25 21:01:00,
2013-04-25 15:11:00,61.0,17.0,-100.00,SE,143,6.0,8.0,18,0.00,,,-99.99,,2013-04-25 21:11:00,
2013-04-25 15:21:00,61.0,17.0,-100.00,SE,143,6.0,8.0,18,0.00,,,-99.99,,2013-04-25 21:21:00,
2013-04-25 15:33:00,61.0,17.0,-100.00,SE,143,6.0,8.0,18,0.00,,,-99.99,,2013-04-25 21:33:00,
2013-04-25 15:42:00,62.0,9.0,-100.00,WNW,285,13.0,17.0,12,0.00,,,-99.99,,2013-04-25 21:42:00,
2013-04-25 15:53:00,62.0,9.0,-100.00,WNW,285,13.0,17.0,12,0.00,,,-99.99,,2013-04-25 21:53:00,
2013-04-25 16:02:00,62.0,9.0,-100.00,WNW,285,13.0,17.0,12,0.00,,,-99.99,,2013-04-25 22:02:00,
2013-04-25 16:12:00,63.0,12.0,-100.00,WSW,256,9.0,11.0,13,0.00,,,-99.99,,2013-04-25 22:12:00,
2013-04-25 16:22:00,62.0,10.0,-100.00,West,265,9.0,13.0,13,0.00,,,-99.99,,2013-04-25 22:22:00,
2013-04-25 16:32:00,62.0,10.0,-100.00,West,265,9.0,13.0,13,0.00,,,-99.99,,2013-04-25 22:32:00,
2013-04-25 16:42:00,64.0,15.0,-100.00,West,281,9.0,13.0,15,0.00,,,-99.99,,2013-04-25 22:42:00,
2013-04-25 16:52:00,64.0,15.0,-100.00,West,281,9.0,13.0,15,0.00,,,-99.99,,2013-04-25 22:52:00,
2013-04-25 17:02:00,64.0,15.0,-100.00,West,281,9.0,13.0,15,0.00,,,-99.99,,2013-04-25 23:02:00,
2013-04-25 17:12:00,62.0,13.0,-100.00,WSW,257,9.0,14.0,15,0.00,,,-99.99,,2013-04-25 23:12:00,
2013-04-25 17:22:00,61.0,12.0,-100.00,WNW,284,8.0,10.0,14,0.00,,,-99.99,,2013-04-25 23:22:00,
2013-04-25 17:32:00,61.0,12.0,-100.00,WNW,284,8.0,10.0,14,0.00,,,-99.99,,2013-04-25 23:32:00,
2013-04-25 17:41:00,62.0,11.0,-100.00,NW,306,12.0,15.0,13,0.00,,,-99.99,,2013-04-25 23:41:00,
2013-04-25 17:52:00,63.0,12.0,-100.00,NW,308,13.0,15.0,13,0.00,,,-99.99,,2013-04-25 23:52:00,
2013-04-25 18:01:00,63.0,12.0,-100.00,NW,308,13.0,15.0,13,0.00,,,-99.99,,2013-04-26 00:01:00,
2013-04-25 18:11:00,63.0,12.0,-100.00,West,272,8.0,11.0,14,0.00,,,-99.99,,2013-04-26 00:11:00,
2013-04-25 18:21:00,63.0,12.0,-100.00,West,272,8.0,11.0,14,0.00,,,-99.99,,2013-04-26 00:21:00,
2013-04-25 18:31:00,63.0,12.0,-100.00,West,272,8.0,11.0,14,0.00,,,-99.99,,2013-04-26 00:31:00,
2013-04-25 18:41:00,62.0,8.0,-100.00,WNW,302,13.0,17.0,11,0.00,,,-99.99,,2013-04-26 00:41:00,
2013-04-25 18:52:00,61.0,9.0,-100.00,WNW,295,9.0,13.0,12,0.00,,,-99.99,,2013-04-26 00:52:00,
2013-04-25 19:01:00,61.0,9.0,-100.00,WNW,295,9.0,13.0,12,0.00,,,-99.99,,2013-04-26 01:01:00,
2013-04-25 19:11:00,61.0,5.0,-100.00,West,277,9.0,12.0,10,0.00,,,-99.99,,2013-04-26 01:11:00,
2013-04-25 19:21:00,61.0,5.0,-100.00,West,277,9.0,12.0,10,0.00,,,-99.99,,2013-04-26 01:21:00,
2013-04-25 19:31:00,61.0,5.0,-100.00,West,277,9.0,12.0,10,0.00,,,-99.99,,2013-04-26 01:31:00,
2013-04-25 19:41:00,60.0,13.0,-100.00,WSW,250,5.0,8.0,16,0.00,,,-99.99,,2013-04-26 01:41:00,
2013-04-25 19:52:00,60.0,8.0,-100.00,NW,312,9.0,12.0,13,0.00,,,-99.99,,2013-04-26 01:52:00,
2013-04-25 20:01:00,60.0,8.0,-100.00,NW,312,9.0,12.0,13,0.00,,,-99.99,,2013-04-26 02:01:00,
2013-04-25 20:11:00,58.0,12.0,-100.00,WNW,289,6.0,9.0,16,0.00,,,-99.99,,2013-04-26 02:11:00,
2013-04-25 20:21:00,56.0,14.0,-100.00,West,268,5.0,7.0,18,0.00,,,-99.99,,2013-04-26 02:21:00,
2013-04-25 20:31:00,56.0,14.0,-100.00,West,268,5.0,7.0,18,0.00,,,-99.99,,2013-04-26 02:31:00,
2013-04-25 20:42:00,54.0,14.0,-100.00,West,280,6.0,8.0,20,0.00,,,-99.99,,2013-04-26 02:42:00,
2013-04-25 20:52:00,53.0,13.0,-100.00,West,268,5.0,7.0,20,0.00,,,-99.99,,2013-04-26 02:52:00,
2013-04-25 21:01:00,53.0,13.0,-100.00,West,268,5.0,7.0,20,0.00,,,-99.99,,2013-04-26 03:01:00,
2013-04-25 21:11:00,54.0,13.0,-100.00,West,274,4.0,5.0,19,0.00,,,-99.99,,2013-04-26 03:11:00,
2013-04-25 21:21:00,53.0,11.0,-100.00,NW,305,4.0,5.0,18,0.00,,,-99.99,,2013-04-26 03:21:00,
2013-04-25 21:32:00,53.0,11.0,-100.00,NW,305,4.0,5.0,18,0.00,,,-99.99,,2013-04-26 03:32:00,
2013-04-25 21:43:00,53.0,11.0,-100.00,NW,305,4.0,5.0,18,0.00,,,-99.99,,2013-04-26 03:43:00,
2013-04-25 21:53:00,51.0,13.0,-100.00,NNE,18,2.0,3.0,21,0.00,,,-99.99,,2013-04-26 03:53:00,
2013-04-25 22:02:00,51.0,13.0,-100.00,NNE,18,2.0,3.0,21,0.00,,,-99.99,,2013-04-26 04:02:00,
2013-04-25 22:12:00,48.0,15.0,-100.00,ENE,73,0.0,2.0,26,0.00,,,-99.99,,2013-04-26 04:12:00,
2013-04-25 22:22:00,46.0,16.0,-100.00,East,85,3.0,4.0,29,0.00,,,-99.99,,2013-04-26 04:22:00,
2013-04-25 22:32:00,46.0,16.0,-100.00,East,85,3.0,4.0,29,0.00,,,-99.99,,2013-04-26 04:32:00,
2013-04-25 22:43:00,46.0,16.0,-100.00,East,85,3.0,4.0,29,0.00,,,-99.99,,2013-04-26 04:43:00,
2013-04-25 22:53:00,42.0,17.0,-100.00,SW,215,4.0,5.0,36,0.00,,,-99.99,,2013-04-26 04:53:00,
2013-04-25 23:02:00,42.0,17.0,-100.00,SW,215,4.0,5.0,36,0.00,,,-99.99,,2013-04-26 05:02:00,
2013-04-25 23:12:00,44.0,16.0,-100.00,East,82,1.0,2.0,32,0.00,,,-99.99,,2013-04-26 05:12:00,
2013-04-25 23:22:00,40.0,17.0,-100.00,ESE,113,2.0,3.0,39,0.00,,,-99.99,,2013-04-26 05:22:00,
2013-04-25 23:32:00,40.0,17.0,-100.00,ESE,113,2.0,3.0,39,0.00,,,-99.99,,2013-04-26 05:32:00,
2013-04-25 23:41:00,39.0,18.0,-100.00,South,175,0.0,1.0,42,0.00,,,-99.99,,2013-04-26 05:41:00,
2013-04-25 23:52:00,40.0,17.0,-100.00,SSE,147,4.0,4.0,39,0.00,,,-99.99,,2013-04-26 05:52:00,